Flight Track Log - Related Links

Times and Time Zones

All times are in EDT time to prevent confusion due to time zone crossing. See the AAL1624 flight status page for this flight to view local times or setup timezone preferences in your user account.

Time Position Orientation Groundspeed Altitude Reporting Facility
EDT Latitude Longitude Course Direction KTS MPH feet Rate Location/Type
Sat 06:32:03 PM 33.9333 -118.4333 59° Northeast 168 193 1,400  Level Southern California TRACON
Sat 06:33:03 PM 33.9167 -118.5000 253° West 196 226 2,600 1,240 Climbing Southern California TRACON
Sat 06:34:00 PM 34.1336 -118.0661 59° Northeast  Level FlightAware Approximate
Sat 06:34:04 PM 33.9000 -118.5667 253° West 265 305 3,900  Level Southern California TRACON
Sat 06:35:00 PM 34.2003 -117.9328 59° Northeast  Level FlightAware Approximate
Sat 06:35:16 PM 33.8372 -118.6336 222° Southwest 285 328 6,300  Level Los Angeles Center
Sat 06:36:00 PM 34.2751 -117.8165 59° Northeast  Level FlightAware Approximate
Sat 06:36:18 PM 33.7883 -118.5658 131° Southeast 283 326 8,900  Level Los Angeles Center
Sat 06:37:00 PM 34.3478 -117.6877 59° Northeast  Level FlightAware Approximate
Sat 06:37:20 PM 33.8478 -118.4994 43° Northeast 310 357 10,900  Level Los Angeles Center
Sat 06:38:22 PM 33.9256 -118.4394 33° Northeast 326 375 13,200 2,371 Climbing Los Angeles Center
Sat 06:39:24 PM 33.9844 -118.3431 54° Northeast 354 407 15,800 2,274 Climbing Los Angeles Center
Sat 06:40:26 PM 34.0436 -118.2394 55° Northeast 367 422 17,900 2,177 Climbing Los Angeles Center
Sat 06:41:28 PM 34.1056 -118.1300 56° Northeast 385 443 20,300 2,274 Climbing Los Angeles Center
Sat 06:42:30 PM 34.1692 -118.0158 56° Northeast 403 464 22,600 2,049 Climbing Los Angeles Center
Sat 06:43:31 PM 34.2364 -117.8989 55° Northeast 416 479 24,500 1,805 Climbing Los Angeles Center
Sat 06:44:33 PM 34.3211 -117.7550 54° Northeast 434 499 26,300 1,452 Climbing Los Angeles Center
Sat 06:45:35 PM 34.3922 -117.6564 49° Northeast 447 514 27,500 1,500 Climbing Los Angeles Center
Sat 06:46:37 PM 34.4911 -117.5139 50° Northeast 458 527 29,400 1,597 Climbing Los Angeles Center
Sat 06:47:39 PM 34.5753 -117.3925 50° Northeast 468 539 30,800 1,306 Climbing Los Angeles Center
Sat 06:48:41 PM 34.6589 -117.2694 50° Northeast 475 547 32,100 1,268 Climbing Los Angeles Center
Sat 06:49:42 PM 34.7439 -117.1464 50° Northeast 479 551 33,400 1,317 Climbing Los Angeles Center
Sat 06:50:44 PM 34.8294 -117.0222 50° Northeast 481 554 34,800 1,403 Climbing Los Angeles Center
Sat 06:51:46 PM 34.9139 -116.8994 50° Northeast 478 550 36,300 1,065 Climbing Los Angeles Center
Sat 06:52:48 PM 35.0125 -116.7539 50° Northeast 469 540 37,000 341 Climbing Los Angeles Center
Sat 06:53:49 PM 35.0972 -116.6319 50° Northeast 471 542 37,000  Level Los Angeles Center
Sat 06:54:51 PM 35.1806 -116.5097 50° Northeast 471 542 37,000  Level Los Angeles Center
Sat 06:55:53 PM 35.2633 -116.3875 50° Northeast 469 540 37,000  Level Los Angeles Center
Sat 06:56:55 PM 35.3467 -116.2650 50° Northeast 471 542 37,000  Level Los Angeles Center
Sat 06:57:57 PM 35.4281 -116.1400 51° Northeast 472 543 37,000  Level Los Angeles Center
Sat 06:58:58 PM 35.5311 -115.9906 50° Northeast 477 549 37,000  Level Los Angeles Center
Sat 07:00:00 PM 35.6203 -115.8547 51° Northeast 480 552 37,000  Level Los Angeles Center
Sat 07:01:02 PM 35.7039 -115.7297 50° Northeast 476 548 37,000  Level Los Angeles Center
Sat 07:02:04 PM 35.7861 -115.6056 51° Northeast 472 543 37,000  Level Los Angeles Center
Sat 07:03:06 PM 35.8675 -115.4822 51° Northeast 468 539 37,000  Level Los Angeles Center
Sat 07:04:07 PM 35.9489 -115.3592 51° Northeast 467 537 37,000  Level Los Angeles Center
Sat 07:05:09 PM 36.0306 -115.2356 51° Northeast 468 539 37,000  Level Los Angeles Center
Sat 07:06:11 PM 36.0892 -115.0550 68° East 489 563 37,000  Level Los Angeles Center
Sat 07:07:13 PM 36.1031 -114.8839 84° East 502 578 37,000  Level Los Angeles Center
Sat 07:08:15 PM 36.1172 -114.7119 84° East 504 580 37,000  Level Los Angeles Center
Sat 07:09:17 PM 36.1322 -114.5389 84° East 507 583 37,000  Level Los Angeles Center
Sat 07:10:19 PM 36.1458 -114.3658 84° East 508 585 37,000  Level Los Angeles Center
Sat 07:11:20 PM 36.1603 -114.1928 84° East 506 582 37,000  Level Los Angeles Center
Sat 07:12:22 PM 36.1761 -113.9850 85° East 507 583 37,000  Level Los Angeles Center
Sat 07:13:24 PM 36.1906 -113.8125 84° East 505 581 37,000  Level Los Angeles Center
Sat 07:14:26 PM 36.2028 -113.6389 85° East 506 582 37,000  Level Los Angeles Center
Sat 07:15:28 PM 36.2181 -113.4661 84° East 505 581 37,000  Level Los Angeles Center
Sat 07:16:30 PM 36.2311 -113.2936 85° East 505 581 37,000  Level Los Angeles Center
Sat 07:17:32 PM 36.2447 -113.1053 85° East 510 587 37,000  Level Los Angeles Center
Sat 07:18:34 PM 36.2564 -112.9314 85° East 511 588 37,000  Level Los Angeles Center
Sat 07:19:35 PM 36.2689 -112.7550 85° East 514 592 37,000  Level Los Angeles Center
Sat 07:20:37 PM 36.2806 -112.5786 85° East 517 595 37,000  Level Los Angeles Center
Sat 07:21:39 PM 36.2944 -112.3667 85° East 517 595 37,000  Level Los Angeles Center
Sat 07:22:41 PM 36.3053 -112.1917 86° East 514 592 37,000  Level Los Angeles Center
Sat 07:23:43 PM 36.3169 -112.0194 85° East 507 583 37,000  Level Los Angeles Center
Sat 07:24:45 PM 36.3286 -111.8467 85° East 505 581 37,000  Level Los Angeles Center
Sat 07:25:03 PM 36.3328 -111.7775 86° East 506 582 37,000  Level Denver Center
Sat 07:26:04 PM 36.3433 -111.6044 86° East 507 583 37,000  Level Denver Center
Sat 07:27:06 PM 36.3522 -111.4300 86° East 508 585 37,000  Level Denver Center
Sat 07:28:07 PM 36.3639 -111.2547 85° East 512 589 37,000  Level Denver Center
Sat 07:29:08 PM 36.3722 -111.0811 87° East 509 586 37,000  Level Denver Center
Sat 07:30:22 PM 36.3814 -110.9058 86° East 510 587 37,000  Level Denver Center
Sat 07:31:23 PM 36.3925 -110.6961 86° East 510 587 37,000  Level Denver Center
Sat 07:32:25 PM 36.4050 -110.4853 86° East 512 589 37,000  Level Denver Center
Sat 07:33:26 PM 36.4131 -110.3092 87° East 513 590 37,000  Level Denver Center
Sat 07:34:27 PM 36.4217 -110.1333 86° East 512 589 37,000  Level Denver Center
Sat 07:35:29 PM 36.4286 -109.9686 87° East 509 586 37,000  Level Denver Center
Sat 07:36:30 PM 36.4372 -109.7719 87° East 510 587 37,000  Level Denver Center
Sat 07:37:31 PM 36.4442 -109.6031 87° East 510 587 37,000  Level Denver Center
Sat 07:38:33 PM 36.4500 -109.4347 87° East 508 585 37,000 293 Level Denver Center
Sat 07:39:34 PM 36.4583 -109.2336 87° East 520 598 37,600 689 Climbing Denver Center
Sat 07:40:35 PM 36.4644 -109.0581 87° East 526 605 38,400 683 Climbing Denver Center
Sat 07:41:37 PM 36.4708 -108.8850 87° East 521 600 39,000 293 Climbing Denver Center
Sat 07:42:38 PM 36.4778 -108.6856 87° East 514 592 39,000  Level Denver Center
Sat 07:43:39 PM 36.4839 -108.5133 87° East 515 593 39,000  Level Denver Center
Sat 07:44:41 PM 36.4903 -108.3147 88° East 514 592 39,000  Level Denver Center
Sat 07:45:42 PM 36.4961 -108.1456 87° East 512 589 39,000  Level Denver Center
Sat 07:46:43 PM 36.5075 -107.9750 85° East 513 590 39,000  Level Denver Center
Sat 07:47:45 PM 36.5536 -107.7903 73° East 501 577 39,000  Level Denver Center
Sat 07:48:46 PM 36.5947 -107.6319 72° East 503 579 39,000  Level Denver Center
Sat 07:49:47 PM 36.6272 -107.4992 73° East 502 578 39,000  Level Denver Center
Sat 07:50:49 PM 36.6822 -107.2881 72° East 502 578 39,000  Level Denver Center
Sat 07:51:50 PM 36.7219 -107.1306 72° East 498 573 39,000  Level Denver Center
Sat 07:52:51 PM 36.7669 -106.9469 73° East 498 573 39,000  Level Denver Center
Sat 07:53:53 PM 36.8069 -106.7911 72° East 493 567 39,000  Level Denver Center
Sat 07:54:54 PM 36.8467 -106.6369 72° East 490 564 39,000  Level Denver Center
Sat 07:55:56 PM 36.8911 -106.4536 73° East 492 566 39,000  Level Denver Center
Sat 07:56:57 PM 36.9283 -106.2975 73° East 492 566 39,000  Level Denver Center
Sat 07:57:58 PM 36.9736 -106.1136 73° East 496 571 39,000  Level Denver Center
Sat 07:59:00 PM 37.0128 -105.9556 73° East 496 571 39,000  Level Denver Center
Sat 08:00:01 PM 37.0514 -105.7983 73° East 495 570 39,000  Level Denver Center
Sat 08:01:02 PM 37.1014 -105.6144 71° East 498 573 39,000  Level Denver Center
Sat 08:02:04 PM 37.1417 -105.4558 72° East 499 574 39,000  Level Denver Center
Sat 08:03:05 PM 37.1867 -105.2711 73° East 496 571 39,000  Level Denver Center
Sat 08:04:06 PM 37.2269 -105.1125 72° East 498 573 39,000  Level Denver Center
Sat 08:05:08 PM 37.2667 -104.9533 73° East 498 573 39,000  Level Denver Center
Sat 08:06:09 PM 37.3119 -104.7692 73° East 495 570 39,000  Level Denver Center
Sat 08:07:10 PM 37.3508 -104.6111 73° East 495 570 39,000  Level Denver Center
Sat 08:08:12 PM 37.3950 -104.4292 73° East 489 563 39,000  Level Denver Center
Sat 08:09:13 PM 37.4333 -104.2733 73° East 488 562 39,000  Level Denver Center
Sat 08:10:14 PM 37.4703 -104.1181 73° East 488 562 39,000  Level Denver Center
Sat 08:11:16 PM 37.5142 -103.9406 73° East 495 570 39,000  Level Denver Center
Sat 08:12:17 PM 37.5628 -103.7606 71° East 493 567 39,000  Level Denver Center
Sat 08:13:19 PM 37.6036 -103.6006 72° East 499 574 39,000  Level Denver Center
Sat 08:14:20 PM 37.6447 -103.4419 72° East 498 573 39,000  Level Denver Center
Sat 08:15:21 PM 37.6911 -103.2564 72° East 496 571 39,000  Level Denver Center
Sat 08:16:23 PM 37.7308 -103.0961 73° East 499 574 39,000  Level Denver Center
Sat 08:17:24 PM 37.7775 -102.9114 72° East 493 567 39,000  Level Denver Center
Sat 08:18:25 PM 37.8167 -102.7519 73° East 495 570 39,000  Level Denver Center
Sat 08:19:27 PM 37.8556 -102.5953 73° East 490 564 39,000  Level Denver Center
Sat 08:20:28 PM 37.8992 -102.4150 73° East 487 560 39,000  Level Denver Center
Sat 08:21:30 PM 37.9375 -102.2586 73° East 485 558 39,000  Level Denver Center
Sat 08:22:31 PM 37.9819 -102.0758 73° East 486 559 39,000  Level Denver Center
Sat 08:23:32 PM 38.0200 -101.9214 73° East 481 554 39,000  Level Denver Center
Sat 08:24:34 PM 38.0603 -101.7678 72° East 479 551 39,000  Level Denver Center
Sat 08:25:35 PM 38.1061 -101.5889 72° East 477 549 39,000  Level Denver Center
Sat 08:26:37 PM 38.1456 -101.4336 72° East 479 551 39,000  Level Denver Center
Sat 08:27:38 PM 38.1917 -101.2519 72° East 481 554 39,000  Level Denver Center
Sat 08:28:39 PM 38.2314 -101.0958 72° East 482 555 39,000  Level Denver Center
Sat 08:29:41 PM 38.2703 -100.9383 72° East 483 556 39,000  Level Denver Center
Sat 08:30:42 PM 38.3164 -100.7531 72° East 488 562 39,000  Level Denver Center
Sat 08:31:32 PM 38.3489 -100.6183 73° East 489 563 39,000  Level Kansas City Center
Sat 08:32:33 PM 38.3875 -100.4578 73° East 492 566 39,000  Level Kansas City Center
Sat 08:33:35 PM 38.4269 -100.2964 73° East 495 570 39,000  Level Kansas City Center
Sat 08:34:34 PM 38.4722 -100.1083 73° East 497 572 39,000  Level Kansas City Center
Sat 08:35:38 PM 38.5122 -99.9489 72° East 493 567 39,000  Level Kansas City Center
Sat 08:36:39 PM 38.5722 -99.7708 67° East 489 563 39,000  Level Kansas City Center
Sat 08:37:40 PM 38.6214 -99.6194 67° East 484 557 39,000  Level Kansas City Center
Sat 08:38:39 PM 38.6597 -99.4536 73° East 485 558 39,000  Level Kansas City Center
Sat 08:39:43 PM 38.6994 -99.2883 73° East 485 558 39,000  Level Kansas City Center
Sat 08:40:43 PM 38.7397 -99.1228 73° East 486 559 39,000  Level Kansas City Center
Sat 08:41:43 PM 38.7781 -98.9603 73° East 479 551 39,000  Level Kansas City Center
Sat 08:42:47 PM 38.8261 -98.8017 69° East 474 545 39,000  Level Kansas City Center
Sat 08:43:48 PM 38.8933 -98.6553 59° Northeast 476 548 39,000  Level Kansas City Center
Sat 08:44:48 PM 38.9606 -98.5069 60° Northeast 478 550 39,000  Level Kansas City Center
Sat 08:45:49 PM 39.0272 -98.3594 60° Northeast 476 548 39,000  Level Kansas City Center
Sat 08:46:48 PM 39.0961 -98.2117 59° Northeast 479 551 39,000  Level Kansas City Center
Sat 08:47:52 PM 39.1639 -98.0633 59° Northeast 480 552 39,000  Level Kansas City Center
Sat 08:48:53 PM 39.2383 -97.9039 59° Northeast 479 551 39,000  Level Kansas City Center
Sat 08:49:55 PM 39.3133 -97.7414 59° Northeast 481 554 39,000  Level Kansas City Center
Sat 08:50:55 PM 39.3689 -97.5839 65° Northeast 485 558 39,000  Level Kansas City Center
Sat 08:51:54 PM 39.4033 -97.4278 74° East 482 555 39,000  Level Kansas City Center
Sat 08:52:58 PM 39.4450 -97.2406 74° East 484 557 39,000  Level Kansas City Center
Sat 08:53:56 PM 39.4786 -97.0808 75° East 483 556 39,000  Level Kansas City Center
Sat 08:54:57 PM 39.5208 -96.8942 74° East 483 556 39,000  Level Kansas City Center
Sat 08:56:00 PM 39.5542 -96.7317 75° East 486 559 39,000  Level Kansas City Center
Sat 08:57:02 PM 39.5878 -96.5700 75° East 485 558 39,000  Level Kansas City Center
Sat 08:58:01 PM 39.6281 -96.3819 74° East 483 556 39,000  Level Kansas City Center
Sat 08:59:02 PM 39.6628 -96.2192 74° East 488 562 39,000  Level Kansas City Center
Sat 09:00:04 PM 39.6956 -96.0578 75° East 484 557 39,000  Level Kansas City Center
Sat 09:01:06 PM 39.7339 -95.8694 75° East 481 554 39,000  Level Kansas City Center
Sat 09:02:05 PM 39.7675 -95.7069 75° East 485 558 39,000  Level Kansas City Center
Sat 09:03:07 PM 39.8011 -95.5444 75° East 485 558 39,000  Level Kansas City Center
Sat 09:04:08 PM 39.8381 -95.3550 76° East 482 555 39,000  Level Kansas City Center
Sat 09:05:09 PM 39.8703 -95.1917 76° East 485 558 39,000  Level Kansas City Center
Sat 09:06:11 PM 39.9031 -95.0283 75° East 484 557 39,000  Level Kansas City Center
Sat 09:07:12 PM 39.9408 -94.8369 76° East 487 560 39,000  Level Kansas City Center
Sat 09:08:13 PM 39.9731 -94.6722 76° East 488 562 39,000  Level Kansas City Center
Sat 09:09:12 PM 40.0042 -94.5072 76° East 489 563 39,000  Level Kansas City Center
Sat 09:10:13 PM 40.0422 -94.3147 75° East 490 564 39,000  Level Kansas City Center
Sat 09:11:15 PM 40.0739 -94.1503 76° East 488 562 39,000  Level Kansas City Center
Sat 09:12:16 PM 40.1031 -93.9744 78° East 493 567 39,000  Level Kansas City Center
Sat 09:13:16 PM 40.1336 -93.8022 77° East 491 565 39,000  Level Kansas City Center
Sat 09:14:17 PM 40.1661 -93.6319 76° East 488 562 39,000  Level Kansas City Center
Sat 09:15:18 PM 40.1983 -93.4611 76° East 487 560 39,000  Level Kansas City Center
Sat 09:16:21 PM 40.2286 -93.2906 77° East 487 560 39,000  Level Kansas City Center
Sat 09:17:22 PM 40.2603 -93.1192 76° East 486 559 39,000  Level Kansas City Center
Sat 09:18:23 PM 40.2936 -92.9367 76° East 486 559 39,000  Level Kansas City Center
Sat 09:19:24 PM 40.3278 -92.7422 77° East 490 564 39,000 -50 Level Kansas City Center
Sat 09:20:23 PM 40.3547 -92.5836 77° East 492 566 38,900 -555 Descending Kansas City Center
Sat 09:21:23 PM 40.3856 -92.4103 77° East 492 566 37,900 -1,016 Descending Kansas City Center
Sat 09:22:27 PM 40.4208 -92.2067 77° East 488 562 36,800 -1,016 Descending Kansas City Center
Sat 09:23:27 PM 40.4492 -92.0344 78° East 487 560 35,800 -934 Descending Kansas City Center
Sat 09:24:29 PM 40.4775 -91.8636 78° East 484 557 34,900 -927 Descending Kansas City Center
Sat 09:25:30 PM 40.5061 -91.6922 78° East 484 557 33,900 -981 Descending Kansas City Center
Sat 09:26:13 PM 40.5297 -91.5506 78° East 495 570 33,200 -519 Descending Chicago Center
Sat 09:27:14 PM 40.5628 -91.3792 76° East 491 565 33,000 -98 Descending Chicago Center
Sat 09:28:15 PM 40.6203 -91.2089 66° East 482 555 33,000 -295 Level Chicago Center
Sat 09:29:16 PM 40.6764 -91.0503 65° Northeast 477 549 32,400 -787 Descending Chicago Center
Sat 09:30:17 PM 40.7289 -90.8917 66° East 474 545 31,400 -984 Descending Chicago Center
Sat 09:31:18 PM 40.7803 -90.7389 66° East 458 527 30,400 -984 Descending Chicago Center
Sat 09:32:19 PM 40.8317 -90.5864 66° East 454 522 29,400 -984 Descending Chicago Center
Sat 09:33:20 PM 40.8814 -90.4367 66° East 446 513 28,400 -984 Descending Chicago Center
Sat 09:34:21 PM 40.9306 -90.2894 66° East 438 504 27,400 -984 Descending Chicago Center
Sat 09:35:22 PM 40.9811 -90.1364 66° East 435 501 26,400 -984 Descending Chicago Center
Sat 09:36:23 PM 41.0267 -89.9958 67° East 430 495 25,400 -984 Descending Chicago Center
Sat 09:37:24 PM 41.0756 -89.8500 66° East 431 496 24,400 -689 Descending Chicago Center
Sat 09:38:25 PM 41.1214 -89.7081 67° East 421 484 24,000 -344 Descending Chicago Center
Sat 09:39:26 PM 41.1669 -89.5706 66° East 406 467 23,700 -1,033 Descending Chicago Center
Sat 09:40:27 PM 41.2211 -89.4378 61° Northeast 406 467 21,900 -1,884 Descending Chicago Center
Sat 09:41:27 PM 41.2717 -89.3139 61° Northeast 384 442 19,900 -1,884 Descending Chicago Center
Sat 09:42:28 PM 41.3197 -89.1928 62° Northeast 372 428 18,100 -1,525 Descending Chicago Center
Sat 09:43:29 PM 41.3636 -89.0797 63° Northeast 361 415 16,800 -1,721 Descending Chicago Center
Sat 09:44:30 PM 41.4189 -88.9417 62° Northeast 355 409 14,600 -1,918 Descending Chicago Center
Sat 09:45:31 PM 41.4633 -88.8303 62° Northeast 343 395 12,900 -1,636 Descending Chicago Center
Sat 09:46:31 PM 41.5067 -88.7228 62° Northeast 332 382 11,300 -942 Descending Chicago Center
Sat 09:47:32 PM 41.5506 -88.6078 63° Northeast 344 396 11,000 -295 Descending Chicago Center
Sat 09:48:33 PM 41.5964 -88.4947 62° Northeast 347 399 10,700 -197 Descending Chicago Center
Sat 09:49:34 PM 41.6464 -88.3997 55° Northeast 314 361 10,600 -148 Descending Chicago Center
Sat 09:50:35 PM 41.7008 -88.3089 51° Northeast 311 358 10,400 -248 Descending Chicago Center
Sat 09:51:35 PM 41.7469 -88.2303 52° Northeast 272 313 10,100 -590 Descending Chicago Center
Sat 09:52:37 PM 41.8006 -88.1803 35° Northeast 253 291 9,200 -1,230 Descending Chicago Center
Sat 09:53:37 PM 41.8625 -88.1803 360° North 221 254 7,600 -1,100 Descending Chicago Center
Sat 09:54:37 PM 41.9228 -88.1831 358° North 217 250 7,000 -793 Descending Chicago Center
Sat 09:55:38 PM 41.9831 -88.1836 360° North 216 249 6,000 -1,180 Descending Chicago Center
Sat 09:56:39 PM 42.0400 -88.1697 10° North 217 250 4,600 -1,377 Descending Chicago Center

Login

Don't have an account? Register now (free) for customized features, flight alerts, and more!